createdAt,value
2018-07-23T00:03:21.000Z,36.725
2018-07-23T00:13:21.000Z,36.833
2018-07-23T00:23:22.000Z,36.91
2018-07-23T00:33:22.000Z,37.029
2018-07-23T00:43:22.000Z,37.191
2018-07-23T00:53:22.000Z,37.323
2018-07-23T01:03:22.000Z,37.442
2018-07-23T01:13:22.000Z,37.506
2018-07-23T01:23:22.000Z,37.669
2018-07-23T01:33:22.000Z,37.822
2018-07-23T01:43:22.000Z,37.919
2018-07-23T01:53:22.000Z,37.952
2018-07-23T02:03:22.000Z,38.004
2018-07-23T02:13:22.000Z,38.268
2018-07-23T02:23:22.000Z,38.287
2018-07-23T02:33:22.000Z,38.34
2018-07-23T02:43:22.000Z,38.582
2018-07-23T02:53:22.000Z,38.556
2018-07-23T03:03:22.000Z,38.631
2018-07-23T03:13:22.000Z,38.929
2018-07-23T03:23:22.000Z,39.083
2018-07-23T03:33:22.000Z,38.923
2018-07-23T03:43:22.000Z,39.053
2018-07-23T03:53:22.000Z,39.139
2018-07-23T04:03:22.000Z,39.203
2018-07-23T04:13:22.000Z,39.334
2018-07-23T04:23:22.000Z,39.366
2018-07-23T04:33:22.000Z,39.495
2018-07-23T04:43:22.000Z,39.462
2018-07-23T04:53:22.000Z,39.618
2018-07-23T05:03:22.000Z,40.059
2018-07-23T05:13:22.000Z,39.923
2018-07-23T05:23:22.000Z,39.589
2018-07-23T05:33:22.000Z,39.864
2018-07-23T05:43:22.000Z,40.382
2018-07-23T05:53:22.000Z,40.098
2018-07-23T06:03:22.000Z,39.65
2018-07-23T06:13:22.000Z,39.584
2018-07-23T06:23:22.000Z,39.477
2018-07-23T06:33:22.000Z,39.391
2018-07-23T06:43:22.000Z,39.424
2018-07-23T06:53:22.000Z,39.281
2018-07-23T07:03:22.000Z,39.163
2018-07-23T07:13:22.000Z,39.535
2018-07-23T07:23:22.000Z,39.496
2018-07-23T07:33:22.000Z,39.583
2018-07-23T07:43:22.000Z,38.971
2018-07-23T07:53:22.000Z,38.556
2018-07-23T08:03:22.000Z,37.676
2018-07-23T08:13:22.000Z,36.761
2018-07-23T08:23:22.000Z,36.101
2018-07-23T08:33:23.000Z,35.788
2018-07-23T08:43:23.000Z,35.415
2018-07-23T08:53:23.000Z,34.947
2018-07-23T09:03:23.000Z,34.68
2018-07-23T09:13:23.000Z,34.032
2018-07-23T09:23:23.000Z,32.123
2018-07-23T09:33:23.000Z,31.859
2018-07-23T09:43:23.000Z,30.69
2018-07-23T09:53:23.000Z,31.208
2018-07-23T10:03:23.000Z,31.447
2018-07-23T10:13:23.000Z,30.553
2018-07-23T10:23:23.000Z,30.671
2018-07-23T10:33:23.000Z,30.284
2018-07-23T10:43:23.000Z,30.203
2018-07-23T10:53:23.000Z,30.152
2018-07-23T11:03:23.000Z,30.197
2018-07-23T11:13:23.000Z,29.715
2018-07-23T11:23:23.000Z,29.264
2018-07-23T11:33:24.000Z,29.404
2018-07-23T11:43:23.000Z,29.272
2018-07-23T11:53:24.000Z,28.868
2018-07-23T12:03:23.000Z,28.702
2018-07-23T12:13:23.000Z,28.4
2018-07-23T12:23:23.000Z,28.35
2018-07-23T12:33:23.000Z,28.151
2018-07-23T12:43:23.000Z,27.967
2018-07-23T12:53:23.000Z,27.915
2018-07-23T13:03:23.000Z,27.779
2018-07-23T13:13:23.000Z,27.98
2018-07-23T13:23:23.000Z,28.224
2018-07-23T13:33:23.000Z,27.996
2018-07-23T13:43:23.000Z,28.003
2018-07-23T13:53:23.000Z,28.287
2018-07-23T14:03:23.000Z,28.14
2018-07-23T14:13:23.000Z,28.169
2018-07-23T14:23:23.000Z,28.407
2018-07-23T14:33:23.000Z,28.097
2018-07-23T14:43:23.000Z,28.277
2018-07-23T14:53:23.000Z,28.122
2018-07-23T15:03:23.000Z,28.007
2018-07-23T15:13:23.000Z,27.727
2018-07-23T15:23:23.000Z,27.793
2018-07-23T15:33:23.000Z,28.094
2018-07-23T15:43:23.000Z,28.139
2018-07-23T15:53:23.000Z,27.8
2018-07-23T16:03:23.000Z,28.235
2018-07-23T16:13:23.000Z,27.824
2018-07-23T16:23:23.000Z,27.831
2018-07-23T16:33:24.000Z,27.877
2018-07-23T16:43:24.000Z,28.132
2018-07-23T16:53:24.000Z,28.123
2018-07-23T17:03:24.000Z,27.123
2018-07-23T17:13:24.000Z,26.847
2018-07-23T17:23:24.000Z,27.171
2018-07-23T17:33:24.000Z,27.553
2018-07-23T17:43:24.000Z,27.645
2018-07-23T17:53:24.000Z,27.723
2018-07-23T18:03:24.000Z,28.383
2018-07-23T18:13:24.000Z,28.37
2018-07-23T18:23:24.000Z,28.246
2018-07-23T18:33:24.000Z,28.84
2018-07-23T18:43:24.000Z,29.235
2018-07-23T18:53:24.000Z,29.311
2018-07-23T19:03:24.000Z,29.314
2018-07-23T19:13:24.000Z,29.892
2018-07-23T19:23:24.000Z,30.648
2018-07-23T19:33:25.000Z,30.937
2018-07-23T19:43:24.000Z,30.945
2018-07-23T19:53:24.000Z,30.937
2018-07-23T20:03:24.000Z,31.124
2018-07-23T20:13:24.000Z,31.314
2018-07-23T20:23:24.000Z,31.786
2018-07-23T20:33:24.000Z,32.003
2018-07-23T20:43:24.000Z,32.234
2018-07-23T20:53:24.000Z,33.346
2018-07-23T21:03:24.000Z,33.6
2018-07-23T21:13:24.000Z,33.757
2018-07-23T21:23:24.000Z,34.023
2018-07-23T21:33:25.000Z,34.325
2018-07-23T21:43:24.000Z,34.821
2018-07-23T21:53:24.000Z,35.294
2018-07-23T22:03:24.000Z,35.493
2018-07-23T22:13:24.000Z,35.914
2018-07-23T22:23:24.000Z,36.398
2018-07-23T22:33:24.000Z,36.796
2018-07-23T22:43:24.000Z,36.916
2018-07-23T22:53:24.000Z,37.002
2018-07-23T23:03:24.000Z,37.784
2018-07-23T23:13:24.000Z,38.359
2018-07-23T23:23:24.000Z,38.84
2018-07-23T23:33:24.000Z,39.332
2018-07-23T23:43:24.000Z,39.487
2018-07-23T23:53:24.000Z,39.306
